METAR / TAF
Helsinki-Vantaa
HELSINKI/VANTAA
Metar
EFHK 160720Z 21009KT CAVOK 01/M00 Q1007 NOSIG

07:20 UTC

Wind: 210° 9kt

Visibility:

Sky:

Temp: 1 deg C / 33.8 deg F

Dewpoint: 0 deg C / 32 deg F

Pressure: 1007 hPa

TAF
TAF EFHK 160536Z 1606/1706 22009KT CAVOK
Helsinki, Malmi
HELSINKI/MALMI
Turku
TURKU/ABO
Metar
EFTU 160720Z AUTO 24012KT CAVOK 03/M01 Q1007

07:20 UTC

Wind: 240° 12kt

Visibility:

Sky:

Temp: 3 deg C / 37.4 deg F

Dewpoint: -1 deg C / 30.2 deg F

Pressure: 1007 hPa

TAF
TAF EFTU 160536Z 1606/1706 23008KT CAVOK
Tampere, Pirkkala
TAMPERE/PIRKKALA
Metar
EFTP 160720Z AUTO 22014KT CAVOK 01/M02 Q1004

07:20 UTC

Wind: 220° 14kt

Visibility:

Sky:

Temp: 1 deg C / 33.8 deg F

Dewpoint: -2 deg C / 28.4 deg F

Pressure: 1004 hPa

TAF
TAF EFTP 160536Z 1606/1706 21010KT CAVOK BECMG 1618/1620 29010KT
Maarianhamina
MARIEHAMN/ALAND
Metar
EFMA 160720Z AUTO 23011KT 200V270 CAVOK 05/M02 Q1008

07:20 UTC

Wind: 230° 11kt

Visibility:

Sky:

Temp: 5 deg C / 41 deg F

Dewpoint: -2 deg C / 28.4 deg F

Pressure: 1008 hPa

TAF
TAF EFMA 160536Z 1606/1615 23009G19KT CAVOK
Pori
PORI (MIL/CIV)
Metar
EFPO 160720Z AUTO 23012KT 200V260 CAVOK 03/M02 Q1004

07:20 UTC

Wind: 230° 12kt

Visibility:

Sky:

Temp: 3 deg C / 37.4 deg F

Dewpoint: -2 deg C / 28.4 deg F

Pressure: 1004 hPa

Vaasa
VAASA
Metar
EFVA 160720Z AUTO 23006KT CAVOK 01/M01 Q0999

07:20 UTC

Wind: 230° 6kt

Visibility:

Sky:

Temp: 1 deg C / 33.8 deg F

Dewpoint: -1 deg C / 30.2 deg F

Pressure: 999 hPa

TAF
TAF EFVA 160538Z 1606/1706 22007KT CAVOK BECMG 1610/1612 24014KT TEMPO 1611/1700 25018G30KT
Kruunupyy
KRUUNUPYY
Metar
EFKK 160720Z AUTO 18013KT CAVOK 01/M01 Q0998

07:20 UTC

Wind: 180° 13kt

Visibility:

Sky:

Temp: 1 deg C / 33.8 deg F

Dewpoint: -1 deg C / 30.2 deg F

Pressure: 998 hPa

TAF
TAF AMD EFKK 160650Z 1607/1615 19013KT 9999 FEW008 BECMG 1610/1612 25015KT PROB40 1612/1615 25016G26KT
Jyväskylä, Tikkakoski
JYVASKYLA (MIL/C
Metar
EFJY 160720Z AUTO 22005KT 160V280 9999 OVC005 01/00 Q1001

07:20 UTC

Wind: 220° 5kt

Visibility: 9999 m

Sky: OVC 500 ft

Temp: 1 deg C / 33.8 deg F

Dewpoint: 0 deg C / 32 deg F

Pressure: 1001 hPa

TAF
TAF EFJY 160536Z 1606/1706 16005KT 2000 BR BKN002 BECMG 1606/1608 25011KT CAVOK BECMG 1704/1706 31015G30KT
Kuopio
KUOPIO (MIL/CIV)
Metar
EFKU 160720Z AUTO 19009KT 9999 BKN005 01/00 Q1000

07:20 UTC

Wind: 190° 9kt

Visibility: 9999 m

Sky: BKN 500 ft

Temp: 1 deg C / 33.8 deg F

Dewpoint: 0 deg C / 32 deg F

Pressure: 1000 hPa

TAF
TAF EFKU 160538Z 1606/1706 18008KT 9999 FEW005 TEMPO 1606/1609 BKN003 BECMG 1612/1614 23014KT TEMPO 1614/1706 27016G28KT
Joensuu
JOENSUU
Metar
EFJO 160720Z AUTO 14006KT 110V180 CAVOK M01/M02 Q1002

07:20 UTC

Wind: 140° 6kt

Visibility:

Sky:

Temp: -1 deg C / 30.2 deg F

Dewpoint: -2 deg C / 28.4 deg F

Pressure: 1002 hPa

TAF
TAF EFJO 160538Z 1606/1615 18006KT 9999 BKN030 TEMPO 1606/1612 BKN002
Halli
HALLI (FIN-AFB)
Metar
EFHA 160720Z AUTO 20007KT 170V240 9999 BKN008 01/00 Q1003

07:20 UTC

Wind: 200° 7kt

Visibility: 9999 m

Sky: BKN 800 ft

Temp: 1 deg C / 33.8 deg F

Dewpoint: 0 deg C / 32 deg F

Pressure: 1003 hPa

Utti
UTTI (FIN-AFB)
Metar
EFUT 160720Z AUTO 23011KT 9999 OVC002 00/00 Q1006

07:20 UTC

Wind: 230° 11kt

Visibility: 9999 m

Sky: OVC 200 ft

Temp: 0 deg C / 32 deg F

Dewpoint: 0 deg C / 32 deg F

Pressure: 1006 hPa

Mikkeli
MIKKELI
Metar
EFMI 160720Z AUTO 23009KT 190V260 9999 OVC003 00/00 Q1004

07:20 UTC

Wind: 230° 9kt

Visibility: 9999 m

Sky: OVC 300 ft

Temp: 0 deg C / 32 deg F

Dewpoint: 0 deg C / 32 deg F

Pressure: 1004 hPa

Savonlinna
SAVONLINNA (AUT)
Metar
EFSA 160720Z AUTO 19008KT 140V240 9999 BKN004 01/M00 Q1003

07:20 UTC

Wind: 190° 8kt

Visibility: 9999 m

Sky: BKN 400 ft

Temp: 1 deg C / 33.8 deg F

Dewpoint: 0 deg C / 32 deg F

Pressure: 1003 hPa

Lappeenranta
LAPPEENRANTA
Metar
EFLP 160720Z AUTO 20010KT 160V230 0450 R06/0800N R24/0775V1000U FG VV002 01/01 Q1005

07:20 UTC

Wind: 200° 10kt

Visibility: 450 m

Sky: VV 200 ft

Temp: 1 deg C / 33.8 deg F

Dewpoint: 1 deg C / 33.8 deg F

Pressure: 1005 hPa

Oulu
OULU/ULEABORG
Metar
EFOU 160720Z AUTO 19007KT 9999 BKN100/// 01/M00 Q0995

07:20 UTC

Wind: 190° 7kt

Visibility: 9999 m

Sky: BKN 10000 ft

Temp: 1 deg C / 33.8 deg F

Dewpoint: 0 deg C / 32 deg F

Pressure: 995 hPa

TAF
TAF EFOU 160538Z 1606/1706 16009KT CAVOK BECMG 1610/1612 24010KT TEMPO 1612/1615 25016G30KT BECMG 1615/1617 25020KT TEMPO 1618/1706 28028G42KT 2000 -SHSN VV008
Kemi
KEMI
Metar
EFKE 160720Z AUTO 19014KT 9999 BKN005 01/M00 Q0993

07:20 UTC

Wind: 190° 14kt

Visibility: 9999 m

Sky: BKN 500 ft

Temp: 1 deg C / 33.8 deg F

Dewpoint: 0 deg C / 32 deg F

Pressure: 993 hPa

TAF
TAF AMD EFKE 160645Z 1607/1615 18009KT 9999 BKN006 BECMG 1608/1610 24016KT NSC
Rovaniemi
ROVANIEMI (CIV/M
Metar
EFRO 160720Z AUTO 18012KT 9999 FEW004 SCT008 BKN075 BKN090 01/00 Q0989 REFZRA

07:20 UTC

Wind: 180° 12kt

Visibility: 9999 m

Sky: FEW 400 ft

Temp: 1 deg C / 33.8 deg F

Dewpoint: 0 deg C / 32 deg F

Pressure: 989 hPa

TAF
TAF AMD EFRO 160704Z 1607/1706 18012KT 9999 BKN004 BECMG 1607/1609 SCT007 BECMG 1611/1613 24016KT TEMPO 1614/1618 24018G28KT 5000 -SHSN BECMG 1618/1620 30018KT TEMPO 1620/1704 31022G34KT 3000 SHSN SCT030CB
Enontekiö
ENONTEKIO
Metar
EFET 160720Z AUTO 17010KT 130V210 9999 BKN011 M02/M03 Q0981

07:20 UTC

Wind: 170° 10kt

Visibility: 9999 m

Sky: BKN 1100 ft

Temp: -2 deg C / 28.4 deg F

Dewpoint: -3 deg C / 26.6 deg F

Pressure: 981 hPa

Ivalo
IVALO
Metar
EFIV 160720Z 16005KT 110V220 1600 SN OVC011 M04/M05 Q0987

07:20 UTC

Wind: 160° 5kt

Visibility: 1600 m

Sky: OVC 1100 ft

Temp: -4 deg C / 24.8 deg F

Dewpoint: -5 deg C / 23 deg F

Pressure: 987 hPa

TAF
TAF EFIV 160538Z 1606/1615 23005KT 2000 SN OVC011 TEMPO 1606/1609 1200 VV005 BECMG 1609/1611 22015KT 9999 NSW SCT015
Kittilä
KITTILA
Metar
EFKT 160720Z 19010KT 9999 FEW008 BKN063 M01/M03 Q0984

07:20 UTC

Wind: 190° 10kt

Visibility: 9999 m

Sky: FEW 800 ft

Temp: -1 deg C / 30.2 deg F

Dewpoint: -3 deg C / 26.6 deg F

Pressure: 984 hPa

TAF
TAF EFKT 160538Z 1606/1615 16011KT 9999 -SHSN FEW008 BKN020 TEMPO 1606/1608 3000 -SN BKN005 FM160800 21012G22KT 9999 SCT030 TEMPO 1612/1615 25020G32KT 2000 SHSN SCT025CB
Kuusamo
KUUSAMO
Metar
EFKS 160720Z AUTO 19008KT 9999 OVC006 M03/M04 Q0994

07:20 UTC

Wind: 190° 8kt

Visibility: 9999 m

Sky: OVC 600 ft

Temp: -3 deg C / 26.6 deg F

Dewpoint: -4 deg C / 24.8 deg F

Pressure: 994 hPa

TAF
TAF EFKS 160538Z 1606/1615 16005KT 9999 -SN BKN030 TEMPO 1606/1608 3000 BR BKN002 BECMG 1608/1610 21012KT BKN008 BECMG 1610/1612 SCT020
Kajaani
KAJAANI
Metar
EFKI 160720Z AUTO 19007KT 150V210 CAVOK 00/M01 Q0997

07:20 UTC

Wind: 190° 7kt

Visibility:

Sky:

Temp: 0 deg C / 32 deg F

Dewpoint: -1 deg C / 30.2 deg F

Pressure: 997 hPa

TAF
TAF EFKI 160538Z 1606/1615 18010KT CAVOK TEMPO 1606/1611 BKN004
Varkaus
VARKAUS
Seinäjoki
SEINAJOKI-ILMAJO
Metar
EFSI 160720Z AUTO 17007KT 140V220 //// SKC 01/M01 Q0999

07:20 UTC

Wind: 170° 7kt

Visibility:

Sky:

Temp: 1 deg C / 33.8 deg F

Dewpoint: -1 deg C / 30.2 deg F

Pressure: 999 hPa

Print Friendly, PDF & Email